Station: Act Pcs2

  Atmospheric Gas Attenuation - ITU Rec 676-11   --------------- db/100km ---------------
Date Time Temp RH % AH g/m3 Dew Point Wind Direction Speed kph Gust kph Barometer mB Rainfall Since 9am 24GHz 47GHz 76GHz 122GHz 134GHz 241GHz
22 14:10 25 41 9.44 11 6 7 1013.1 0 20.8 24.1 37.6 98.7 95.1 328.2
22 13:50 24.8 44 10.02 12 6 7 1013.1 0 22.0 25.0 39.8 104.5 102.2 353.1
22 13:40 25.4 40 9.42 10.9 6 7 1013.1 0 20.8 23.9 37.3 98.0 94.4 325.8
22 13:30 24.3 42 9.29 10.8 6 9 1013.1 0 20.5 24.0 37.4 98.1 94.1 324.9
22 13:20 23.9 47 10.17 12.1 6 9 1013.1 0 22.4 25.4 40.8 107.1 105.2 363.4
22 13:10 24 45 9.79 11.6 6 9 1013.1 0 21.6 24.9 39.3 103.3 100.4 346.9
22 12:50 24.1 45 9.85 11.7 7 9 1013.1 0 21.7 24.9 39.5 103.8 101.0 349.0
22 12:30 23.2 50 10.39 12.4 4 4 1013.1 0 22.9 26.0 41.9 110.3 108.8 376.1
22 12:20 22.6 47 9.44 10.9 4 6 1013.1 0 20.9 24.7 38.7 101.7 98.0 338.1
22 12:10 22.4 49 9.73 11.3 6 7 1013.1 0 21.6 25.2 39.9 104.8 101.8 351.3
22 12:00 22.3 51 10.07 11.7 6 7 1013.1 0 22.3 25.7 41.2 108.3 106.1 366.4
22 11:50 23 45 9.25 10.7 4 6 1013.1 0 20.5 24.3 37.8 99.3 95.2 328.5
22 11:40 22.2 47 9.23 10.5 9 9 1013.1 0 20.5 24.5 38.1 100.1 95.9 330.9
22 11:30 21.8 49 9.4 10.7 4 7 1013.1 0 20.9 24.9 38.9 102.3 98.5 339.8
22 11:20 21.8 49 9.4 10.7 4 6 1013.1 0 20.9 24.9 38.9 102.3 98.5 339.8
22 11:10 21.8 54 10.36 12.2 4 7 1013.1 0 22.9 26.3 42.6 111.9 110.4 381.4
22 11:00 22 48 9.32 10.6 4 6 1013.1 0 20.7 24.7 38.6 101.2 97.3 335.6
22 10:50 21.1 55 10.13 11.9 4 7 1013.1 0 22.5 26.2 42.0 110.5 108.4 374.6
22 10:30 21.1 55 10.13 11.8 6 9 1013.1 0 22.5 26.2 42.0 110.5 108.4 374.6
22 10:20 21.2 55 10.19 11.8 6 9 1013.1 0 22.6 26.2 42.2 111.0 109.1 376.8
22 10:10 20.5 61 10.85 12.8 6 6 1013.1 0 24.0 27.5 45.2 118.9 118.5 409.8
22 10:00 20.8 56 10.14 11.8 4 6 1013.1 0 22.5 26.3 42.2 111.1 109.0 376.5
22 09:50 19.8 59 10.08 11.7 4 7 1013.1 0 22.4 26.5 42.5 111.9 109.6 378.5
22 09:40 20.5 57 10.14 11.9 4 7 1013.1 0 22.5 26.4 42.4 111.5 109.4 377.9
22 09:20 20.5 54 9.61 10.9 4 6 1013.1 0 21.4 25.6 40.4 106.1 102.7 354.5
22 09:10 20.3 56 9.85 11.3 4 6 1013.1 0 21.9 26.0 41.4 108.8 106.0 366.0
22 09:00 19.9 60 10.31 12.1 4 6 1013.1 0 22.9 26.8 43.4 114.1 112.4 388.4
22 08:50 19.6 60 10.13 11.7 4 6 1013.1 0 22.5 26.6 42.8 112.7 110.5 381.7
22 08:40 19.3 61 10.12 11.6 4 4 1013.1 0 22.5 26.7 43.0 113.0 110.8 382.7
22 08:30 18.6 62 9.87 11.3 4 4 1013.1 0 22.1 26.5 42.4 111.3 108.6 374.8
22 08:20 18.3 64 10.01 11.4 4 4 1013.1 0 22.4 26.8 43.1 113.2 110.8 382.6
22 08:10 18.2 64 9.95 11.3 2 4 1013.1 0 22.2 26.8 42.9 112.8 110.2 380.4
22 08:00 17.3 68 10.02 11.4 2 6 1013.1 0 22.4 27.1 43.7 114.8 112.4 388.0
22 07:50 16.4 73 10.19 11.6 4 4 1013.1 0 22.9 27.7 44.9 118.0 116.0 400.4
22 07:40 16.3 74 10.27 11.6 0 2 1013.1 0 23.0 27.9 45.2 119.0 117.2 404.7
22 07:30 15.6 75 9.97 11.3 2 2 1013.1 0 22.4 27.6 44.4 116.8 114.2 394.1
22 07:20 14.9 77 9.81 11 0 2 1013.1 0 22.1 27.5 44.1 116.0 113.1 390.0
22 07:10 13.5 88 10.29 11.5 0 0 1013.1 0 23.2 28.8 47.0 123.6 121.9 420.6
22 07:00 12.4 90 9.83 10.8 0 0 1013.1 0 22.3 28.4 45.7 120.1 117.1 403.8
22 06:50 11.2 94 9.53 10.3 0 0 1013.1 0 21.7 28.2 45.1 118.5 114.7 395.2
22 06:40 10.5 97 9.41 10 0 0 1013.1 0 21.5 28.3 44.9 118.2 114.1 392.8
22 06:20 10.3 96 9.2 9.7 0 0 1013.1 0 21.1 28.0 44.2 116.0 111.4 383.4
22 06:10 10.4 97 9.35 9.9 0 2 1013.1 0 21.4 28.2 44.7 117.6 113.4 390.3
22 06:00 10.3 97 9.29 9.8 0 2 1013.1 0 21.3 28.1 44.5 117.1 112.6 387.9
22 05:50 10.4 96 9.25 9.8 0 0 1013.1 0 21.2 28.0 44.3 116.5 111.9 385.4
22 05:30 10.9 97 9.65 10.4 2 4 1013.1 0 22.0 28.6 45.8 120.3 116.9 402.7
22 05:10 11 96 9.61 10.4 0 0 1013.1 0 21.9 28.4 45.5 119.7 116.2 400.2
22 05:00 11 96 9.61 10.4 0 0 1013.1 0 21.9 28.4 45.5 119.7 116.2 400.2
22 04:40 11.3 96 9.79 10.7 0 4 1013.1 0 22.3 28.7 46.1 121.3 118.3 407.6
22 04:30 11.2 96 9.73 10.6 0 2 1013.1 0 22.2 28.6 45.9 120.8 117.6 405.1
22 04:20 11.1 96 9.67 10.5 0 2 1013.1 0 22.0 28.5 45.7 120.2 116.9 402.7
22 04:10 11.1 95 9.57 10.3 0 2 1013.1 0 21.8 28.3 45.3 119.1 115.4 397.7
22 04:00 11 97 9.71 10.5 0 0 1013.1 0 22.1 28.6 46.0 120.9 117.6 405.2
22 03:50 10.7 97 9.53 10.3 0 0 1013.1 0 21.7 28.4 45.4 119.2 115.5 397.8
22 03:40 10.8 96 9.49 10.2 0 2 1013.1 0 21.7 28.3 45.1 118.6 114.7 395.3
22 03:20 11.1 95 9.57 10.4 0 0 1013.1 0 21.8 28.3 45.3 119.1 115.4 397.7
22 03:10 11.3 95 9.69 10.5 0 0 1013.1 0 22.1 28.5 45.7 120.2 116.8 402.6
22 02:50 11.4 95 9.75 10.6 2 2 1013.1 0 22.2 28.6 45.9 120.7 117.5 405.1
22 02:40 11.6 94 9.77 10.7 2 2 1013.1 0 22.2 28.5 45.9 120.6 117.5 405.0
22 02:20 11.8 95 10 11 0 0 1013.1 0 22.7 28.9 46.7 123.0 120.5 415.4
22 02:10 11.6 95 9.88 10.8 0 0 1013.1 0 22.5 28.7 46.3 121.9 119.1 410.5
22 01:50 11.9 93 9.85 10.8 2 4 1013.1 0 22.4 28.6 46.0 121.1 118.2 407.4
22 01:30 12.2 94 10.14 11.3 0 0 1013.1 0 23.0 29.0 47.1 123.9 121.8 420.2
22 01:20 12.4 92 10.05 11.1 0 0 1013.1 0 22.8 28.8 46.6 122.6 120.2 414.7
22 01:10 12.5 92 10.12 11.2 0 0 1013.1 0 22.9 28.8 46.8 123.2 121.1 417.6
22 00:50 12.7 91 10.13 11.3 0 0 1013.1 0 22.9 28.8 46.8 123.0 120.9 417.0
22 00:40 12.9 90 10.14 11.3 0 0 1013.1 0 22.9 28.7 46.7 122.8 120.7 416.4
22 00:30 13 89 10.09 11.3 0 0 1013.1 0 22.8 28.6 46.4 122.1 119.9 413.4
22 00:10 13.7 86 10.18 11.5 0 2 1013.1 0 23.0 28.6 46.4 122.0 120.0 414.1
21 23:50 14.5 82 10.2 11.5 0 2 1013.1 0 23.0 28.3 46.0 121.0 119.0 410.8
21 23:40 14.9 79 10.07 11.3 2 2 1013.1 0 22.7 28.0 45.2 118.9 116.6 402.5
21 23:20 15.4 77 10.12 11.5 2 4 1013.1 0 22.8 27.9 45.1 118.7 116.6 402.3
21 23:10 15.6 76 10.11 11.4 2 4 1013.1 0 22.7 27.8 45.0 118.3 116.1 400.8
21 22:50 16.1 73 10.01 11.3 6 7 1013.1 0 22.5 27.5 44.3 116.5 114.0 393.5
21 22:40 16.2 73 10.07 11.3 4 6 1013.1 0 22.6 27.6 44.5 117.0 114.7 395.8
21 22:20 16.7 70 9.95 11.3 6 7 1013.1 0 22.3 27.2 43.7 114.9 112.3 387.7
21 22:10 17 69 9.98 11.3 7 9 1013.1 0 22.4 27.2 43.7 114.8 112.3 387.6
21 21:50 17.5 68 10.14 11.5 7 9 1013.1 0 22.7 27.3 44.0 115.8 113.7 392.5
21 21:30 17.8 69 10.47 12 9 13 1013.1 0 23.4 27.7 45.2 118.9 117.6 406.3
21 21:20 17.9 68 10.38 12 13 15 1013.1 0 23.2 27.5 44.8 117.8 116.3 401.6
21 21:10 17.9 68 10.38 11.9 11 15 1013.1 0 23.2 27.5 44.8 117.8 116.3 401.6
21 20:50 18.3 65 10.16 11.6 7 11 1013.1 0 22.7 27.1 43.7 114.8 112.8 389.5
21 20:40 18.3 65 10.16 11.7 7 11 1013.1 0 22.7 27.1 43.7 114.8 112.8 389.5
21 20:30 18.6 64 10.19 11.8 6 11 1013.1 0 22.7 27.0 43.6 114.7 112.8 389.4
21 20:20 18.8 63 10.15 11.6 9 13 1013.1 0 22.6 26.9 43.4 114.0 111.9 386.5
21 20:10 18.9 62 10.04 11.5 11 15 1013.1 0 22.4 26.7 42.9 112.7 110.4 381.1
21 19:50 19.4 62 10.34 12.1 9 13 1013.1 0 23.0 27.0 43.8 115.1 113.5 392.2
21 19:40 19.7 60 10.19 11.8 11 13 1013.1 0 22.7 26.7 43.0 113.1 111.2 384.0
21 19:30 20.2 57 9.97 11.4 9 11 1013.1 0 22.2 26.2 41.9 110.2 107.7 371.7
21 19:10 20.7 52 9.36 10.7 11 13 1013.1 0 20.9 25.1 39.3 103.3 99.4 342.8
21 18:50 20.7 55 9.9 11.5 11 15 1013.1 0 22.0 25.9 41.4 108.7 106.1 366.3
21 18:40 21.2 54 10.01 11.6 11 15 1013.1 0 22.2 26.0 41.5 109.2 106.8 368.8
21 18:20 22.1 52 10.15 12 11 13 1013.1 0 22.5 25.9 41.6 109.4 107.3 370.8
21 18:10 22.3 52 10.27 12.2 13 15 1013.1 0 22.7 26.1 42.0 110.3 108.5 375.1
21 17:50 23.4 51 10.72 12.9 9 15 1013.1 0 23.6 26.4 43.1 113.3 112.6 389.4
21 17:40 22.8 48 9.75 11.3 9 11 1013.1 0 21.6 25.1 39.8 104.5 101.5 350.4
21 17:30 23.1 49 10.13 12 11 17 1013.1 0 22.4 25.6 41.0 107.8 105.7 365.3
21 17:20 24.6 45 10.13 12 11 17 1013.1 0 22.3 25.2 40.3 105.8 103.7 358.6
21 17:10 24.5 43 9.62 11.1 7 11 1013.1 0 21.2 24.5 38.5 101.0 97.8 337.7
21 16:50 24.1 45 9.85 11.7 9 11 1013.1 0 21.7 24.9 39.5 103.8 101.0 349.0

Last Refresh: 22-Jan-2022 14:00:24

Bureau of Meteorology